Aviation Digital Data Service (ADDS)

Output produced by METARs form (1039 UTC 19 February 2019)
found at http://www.aviationweather.gov/metar/data/
 
Forecast for: DTTJ (DJERBA MELLITA , TN)
Text: TAF DTTJ 190500Z 1906/2006 10005KT CAVOK
Forecast period: 0600 to 1600 UTC 19 February 2019
Forecast type: FROM: standard forecast or significant change
Winds: from the E (100 degrees) at 6 MPH (5 knots; 2.6 m/s)
Visibility: 6 or more miles 10+ km)
Ceiling: unknown
Clouds: missing
Weather: NSW  (no significant weather)
Text: PROB30
Forecast period: 0600 to 0800 UTC 19 February 2019
Forecast type: TEMPORARY: The following changes expected for less than half the time period
Visibility: 1.86 miles (2.99 km)
Ceiling: unknown
Clouds: missing
Weather: BR  (mist)
Text: TEMPO 1906/1908 3000 BR
Forecast period: 1600 UTC 19 February 2019 to 0600 UTC 20 February 2019
Forecast type: BECOMING: Conditions expected to become as follows by 1800 UTC 19 February 2019
Winds: from the E (80 degrees) at 17 MPH (15 knots; 7.7 m/s)
Visibility: 6 or more miles 10+ km)
Ceiling: unknown
Clouds: missing
Weather: NSW  (no significant weather)